Time;durP1;ratioP1;P1;durP2;ratioP2;P2;SDS_P1;SDS_P2;PMS_P1;PMS_P2;Temp;Humidity;BMP_temperature;BMP_pressure;BME280_temperature;BME280_humidity;BME280_pressure;Samples;Min_cycle;Max_cycle;Signal;HPM_P1;HPM_P2
2023/11/29 00:00:55;;;;;;;;;;;;;;;1.56;62.02;99149.47;1087317;54;1486;-77
2023/11/29 00:01:59;;;;;;;;;;;;;;;1.61;62.11;99146.50;1087465;47;1016;-79
2023/11/29 00:02:59;;;;;;;;;;;;;;;1.67;61.80;99146.06;1087453;54;1159;-79
2023/11/29 00:04:03;;;;;;;;;;;;;;;1.71;61.92;99145.72;1087259;54;1860;-78
2023/11/29 00:05:04;;;;;;;;;;;;;;;1.63;62.14;99147.25;1087169;47;1063;-77
2023/11/29 00:06:07;;;;;;;;;;;;;;;1.60;61.94;99145.69;1087299;54;1078;-78
2023/11/29 00:07:08;;;;;;;;;;;;;;;1.56;62.37;99146.84;1087352;47;997;-77
2023/11/29 00:08:11;;;;;;;;;;;;;;;1.45;62.18;99144.97;1087153;47;1059;-77
2023/11/29 00:09:12;;;;;;;;;;;;;;;1.54;62.14;99143.47;1087349;47;965;-78
2023/11/29 00:10:15;;;;;;;;;;;;;;;1.41;62.46;99146.13;1087347;47;1057;-78
2023/11/29 00:11:16;;;;;;;;;;;;;;;1.35;62.58;99138.66;1087224;54;1099;-78
2023/11/29 00:12:22;;;;;;;;;;;;;;;1.43;62.48;99138.09;1087074;54;1091;-78
2023/11/29 00:13:23;;;;;;;;;;;;;;;1.51;62.07;99141.88;1087325;54;1282;-77
2023/11/29 00:14:27;;;;;;;;;;;;;;;1.48;62.12;99146.53;1087338;47;1043;-78
2023/11/29 00:15:27;;;;;;;;;;;;;;;1.36;62.50;99138.53;1087540;47;1506;-78
2023/11/29 00:16:31;;;;;;;;;;;;;;;1.36;62.45;99128.00;1087159;54;1402;-78
2023/11/29 00:17:32;;;;;;;;;;;;;;;1.40;62.47;99134.75;1087261;47;991;-78
2023/11/29 00:18:35;;;;;;;;;;;;;;;1.44;62.48;99135.38;1087141;54;1076;-77
2023/11/29 00:19:36;;;;;;;;;;;;;;;1.33;62.61;99132.66;1087248;47;1177;-78
2023/11/29 00:20:37;;;;;;;;;;;;;;;1.38;62.43;99125.25;1087196;54;1166;-77
2023/11/29 00:21:44;;;;;;;;;;;;;;;1.36;62.36;99135.91;1087260;47;1056;-78
2023/11/29 00:22:45;;;;;;;;;;;;;;;1.42;62.32;99126.75;1087117;54;1055;-78
2023/11/29 00:23:45;;;;;;;;;;;;;;;1.48;62.04;99125.47;1087160;54;1848;-77
2023/11/29 00:24:49;;;;;;;;;;;;;;;1.53;62.37;99123.34;1087093;47;1149;-77
2023/11/29 00:25:49;;;;;;;;;;;;;;;1.48;62.32;99121.03;1087074;47;1110;-78
2023/11/29 00:26:52;;;;;;;;;;;;;;;1.46;62.37;99119.47;1087361;54;1508;-78
2023/11/29 00:27:59;;;;;;;;;;;;;;;1.50;62.37;99115.66;1087511;47;1174;-78
2023/11/29 00:29:02;;;;;;;;;;;;;;;1.43;62.43;99117.03;1087815;54;974;-78
2023/11/29 00:30:03;;;;;;;;;;;;;;;1.48;62.18;99117.56;1087832;54;1078;-78
2023/11/29 00:31:08;;;;;;;;;;;;;;;1.46;62.40;99119.47;1087897;54;975;-79
2023/11/29 00:32:10;;;;;;;;;;;;;;;1.42;62.61;99120.66;1087844;47;1019;-78
2023/11/29 00:33:14;;;;;;;;;;;;;;;1.38;62.63;99115.59;1087828;54;1406;-76
2023/11/29 00:34:14;;;;;;;;;;;;;;;1.44;62.45;99118.72;1088049;54;1005;-78
2023/11/29 00:35:17;;;;;;;;;;;;;;;1.38;62.30;99118.22;1087828;54;859;-78
2023/11/29 00:36:21;;;;;;;;;;;;;;;1.35;62.46;99118.44;1088108;47;1047;-80
2023/11/29 00:37:23;;;;;;;;;;;;;;;1.39;62.08;99122.53;1088261;54;1160;-81
2023/11/29 00:38:28;;;;;;;;;;;;;;;1.31;62.46;99114.34;1088339;54;1010;-80
2023/11/29 00:39:31;;;;;;;;;;;;;;;1.35;62.33;99115.78;1088323;54;1009;-81
2023/11/29 00:40:34;;;;;;;;;;;;;;;1.32;62.13;99110.75;1088319;47;937;-82
2023/11/29 00:41:36;;;;;;;;;;;;;;;1.36;61.97;99117.47;1088387;54;1023;-79
2023/11/29 00:42:38;;;;;;;;;;;;;;;1.30;62.32;99117.91;1088317;47;902;-78
2023/11/29 00:45:20;;;;;;;;;;;;;;;1.38;62.44;99112.09;1088202;47;947;-80
2023/11/29 00:46:25;;;;;;;;;;;;;;;1.39;62.17;99113.78;1088373;54;915;-80
2023/11/29 00:47:28;;;;;;;;;;;;;;;1.46;62.54;99119.47;1088828;47;960;-82
2023/11/29 00:48:30;;;;;;;;;;;;;;;1.35;62.59;99112.31;1088595;47;879;-79
2023/11/29 00:49:34;;;;;;;;;;;;;;;1.34;62.45;99118.53;1088677;47;948;-81
2023/11/29 00:50:35;;;;;;;;;;;;;;;1.38;62.37;99114.72;1088688;54;942;-80
2023/11/29 00:51:40;;;;;;;;;;;;;;;1.27;62.52;99106.78;1088748;54;971;-80
2023/11/29 00:52:42;;;;;;;;;;;;;;;1.33;62.37;99120.31;1088547;54;978;-81
2023/11/29 00:53:46;;;;;;;;;;;;;;;1.29;62.23;99118.88;1088429;54;1395;-81
2023/11/29 00:54:50;;;;;;;;;;;;;;;1.33;62.43;99111.59;1088593;54;980;-81
2023/11/29 00:55:53;;;;;;;;;;;;;;;1.28;62.19;99111.91;1088577;47;963;-83
2023/11/29 00:56:57;;;;;;;;;;;;;;;1.36;62.10;99106.13;1088701;54;1030;-80
2023/11/29 00:58:06;;;;;;;;;;;;;;;1.35;62.35;99113.16;1088630;54;994;-81
2023/11/29 00:59:15;;;;;;;;;;;;;;;1.23;62.52;99112.25;1088758;54;984;-79
2023/11/29 01:00:19;;;;;;;;;;;;;;;1.26;62.61;99113.81;1088598;47;906;-81
2023/11/29 01:01:20;;;;;;;;;;;;;;;1.32;62.33;99109.91;1088581;54;1044;-81
2023/11/29 01:02:22;;;;;;;;;;;;;;;1.28;62.43;99114.56;1088618;54;954;-79
2023/11/29 01:03:28;;;;;;;;;;;;;;;1.26;62.43;99111.19;1088619;54;1303;-78
2023/11/29 01:04:28;;;;;;;;;;;;;;;1.27;62.50;99102.31;1088687;54;1849;-78
2023/11/29 01:05:32;;;;;;;;;;;;;;;1.30;62.66;99106.53;1088741;54;965;-79
2023/11/29 01:06:33;;;;;;;;;;;;;;;1.37;62.23;99103.38;1088662;47;904;-80
2023/11/29 01:07:34;;;;;;;;;;;;;;;1.34;62.30;99103.56;1088799;46;1089;-80
2023/11/29 01:08:37;;;;;;;;;;;;;;;1.37;62.55;99099.91;1088564;54;1003;-81
2023/11/29 01:09:39;;;;;;;;;;;;;;;1.39;62.60;99100.59;1088408;54;994;-78
2023/11/29 01:10:40;;;;;;;;;;;;;;;1.38;62.17;99099.78;1088370;54;964;-80
2023/11/29 01:11:44;;;;;;;;;;;;;;;1.41;62.45;99096.06;1088445;47;995;-80
2023/11/29 01:12:47;;;;;;;;;;;;;;;1.31;62.47;99097.69;1088182;54;1331;-80
2023/11/29 01:13:50;;;;;;;;;;;;;;;1.35;62.54;99097.34;1088436;54;1259;-81
2023/11/29 01:14:53;;;;;;;;;;;;;;;1.32;62.51;99100.22;1088389;47;974;-79
2023/11/29 01:15:54;;;;;;;;;;;;;;;1.41;62.59;99101.34;1088439;54;998;-79
2023/11/29 01:16:57;;;;;;;;;;;;;;;1.41;62.47;99103.97;1088497;54;1002;-81
2023/11/29 01:18:00;;;;;;;;;;;;;;;1.44;62.57;99113.44;1088493;54;985;-81
2023/11/29 01:19:04;;;;;;;;;;;;;;;1.47;62.31;99105.34;1088425;47;1017;-79
2023/11/29 01:20:06;;;;;;;;;;;;;;;1.50;62.37;99100.69;1088407;47;920;-79
2023/11/29 01:21:13;;;;;;;;;;;;;;;1.52;62.45;99101.44;1088347;47;925;-80
2023/11/29 01:22:13;;;;;;;;;;;;;;;1.46;62.57;99106.28;1088306;47;961;-79
2023/11/29 01:23:17;;;;;;;;;;;;;;;1.49;62.41;99103.44;1088280;54;1282;-80
2023/11/29 01:24:17;;;;;;;;;;;;;;;1.45;62.57;99099.34;1088298;54;1842;-80
2023/11/29 01:25:20;;;;;;;;;;;;;;;1.40;62.57;99103.16;1088300;47;941;-79
2023/11/29 01:26:21;;;;;;;;;;;;;;;1.48;62.69;99099.13;1088289;47;941;-79
2023/11/29 01:27:25;;;;;;;;;;;;;;;1.39;62.64;99104.09;1088270;54;989;-79
2023/11/29 01:28:25;;;;;;;;;;;;;;;1.48;62.67;99104.38;1088405;46;966;-80
2023/11/29 01:29:28;;;;;;;;;;;;;;;1.53;62.57;99099.63;1088384;54;945;-80
2023/11/29 01:30:32;;;;;;;;;;;;;;;1.49;62.54;99106.06;1088300;54;903;-79
2023/11/29 01:31:36;;;;;;;;;;;;;;;1.50;62.73;99099.88;1088283;54;993;-80
2023/11/29 01:32:36;;;;;;;;;;;;;;;1.55;62.65;99097.72;1088313;47;853;-80
2023/11/29 01:33:41;;;;;;;;;;;;;;;1.55;62.58;99100.34;1088235;47;1220;-81
2023/11/29 01:34:41;;;;;;;;;;;;;;;1.48;62.61;99099.13;1088261;54;1002;-81
2023/11/29 01:35:42;;;;;;;;;;;;;;;1.43;62.86;99103.88;1088748;46;974;-80
2023/11/29 01:36:46;;;;;;;;;;;;;;;1.39;62.86;99111.16;1088577;46;990;-81
2023/11/29 01:37:48;;;;;;;;;;;;;;;1.36;62.93;99103.47;1088577;54;941;-79
2023/11/29 01:38:52;;;;;;;;;;;;;;;1.34;62.93;99108.84;1088583;54;1042;-82
2023/11/29 01:39:53;;;;;;;;;;;;;;;1.31;62.98;99106.44;1088489;54;1029;-81
2023/11/29 01:40:56;;;;;;;;;;;;;;;1.31;63.09;99098.53;1088278;54;1033;-79
2023/11/29 01:41:57;;;;;;;;;;;;;;;1.25;63.58;99109.50;1088215;47;1003;-79
2023/11/29 01:43:01;;;;;;;;;;;;;;;1.29;63.40;99105.69;1088378;54;951;-81
2023/11/29 01:44:02;;;;;;;;;;;;;;;1.33;63.08;99096.63;1088400;54;1854;-79
2023/11/29 01:45:06;;;;;;;;;;;;;;;1.28;63.44;99103.16;1088636;46;976;-79
2023/11/29 01:46:15;;;;;;;;;;;;;;;1.34;63.31;99103.56;1088659;54;1038;-81
2023/11/29 01:47:20;;;;;;;;;;;;;;;1.18;63.88;99102.97;1088540;54;1016;-80
2023/11/29 01:48:22;;;;;;;;;;;;;;;1.22;63.75;99101.81;1088686;54;1005;-82
2023/11/29 01:49:28;;;;;;;;;;;;;;;1.20;63.60;99095.81;1088728;46;974;-82
2023/11/29 01:50:32;;;;;;;;;;;;;;;1.19;63.90;99094.13;1088565;54;986;-81
2023/11/29 01:51:36;;;;;;;;;;;;;;;1.18;63.94;99100.34;1088566;46;983;-79
2023/11/29 01:52:39;;;;;;;;;;;;;;;1.24;63.64;99103.41;1088527;54;934;-81
2023/11/29 01:53:43;;;;;;;;;;;;;;;1.28;63.81;99103.16;1088584;54;1328;-81
2023/11/29 01:54:43;;;;;;;;;;;;;;;1.32;63.51;99099.38;1088586;54;981;-80
2023/11/29 01:55:52;;;;;;;;;;;;;;;1.31;63.51;99092.41;1088633;54;1088;-82
2023/11/29 01:56:53;;;;;;;;;;;;;;;1.24;63.85;99097.25;1088732;46;912;-81
2023/11/29 01:57:57;;;;;;;;;;;;;;;1.22;63.96;99099.19;1088396;54;1077;-80
2023/11/29 01:58:58;;;;;;;;;;;;;;;1.11;64.32;99101.72;1088591;54;900;-82
2023/11/29 02:00:02;;;;;;;;;;;;;;;1.02;64.43;99098.81;1088246;54;974;-76
2023/11/29 02:01:03;;;;;;;;;;;;;;;1.09;64.41;99107.09;1087977;47;989;-78
2023/11/29 02:02:09;;;;;;;;;;;;;;;1.16;64.20;99104.88;1088177;54;1103;-78
2023/11/29 02:03:10;;;;;;;;;;;;;;;1.21;64.14;99092.25;1088105;46;1410;-77
2023/11/29 02:04:14;;;;;;;;;;;;;;;1.15;64.44;99093.50;1087784;54;1858;-78
2023/11/29 02:05:14;;;;;;;;;;;;;;;1.11;64.64;99086.75;1088003;46;1068;-78
2023/11/29 02:06:19;;;;;;;;;;;;;;;1.17;64.63;99090.75;1088105;54;983;-80
2023/11/29 02:07:20;;;;;;;;;;;;;;;1.24;64.17;99092.84;1088254;54;1064;-78
2023/11/29 02:08:24;;;;;;;;;;;;;;;1.38;64.22;99088.38;1088172;54;1009;-78
2023/11/29 02:09:24;;;;;;;;;;;;;;;1.47;64.22;99092.16;1088031;54;1071;-79
2023/11/29 02:10:28;;;;;;;;;;;;;;;1.58;63.87;99091.38;1088036;47;971;-79
2023/11/29 02:11:29;;;;;;;;;;;;;;;1.54;63.69;99082.88;1087977;47;1159;-80
2023/11/29 02:12:33;;;;;;;;;;;;;;;1.52;63.89;99083.00;1088123;54;1095;-80
2023/11/29 02:13:34;;;;;;;;;;;;;;;1.57;63.75;99087.91;1087408;47;1261;-78
2023/11/29 02:14:40;;;;;;;;;;;;;;;1.62;63.79;99075.25;1088041;54;968;-78
2023/11/29 02:15:41;;;;;;;;;;;;;;;1.56;63.89;99080.97;1088113;54;1429;-79
2023/11/29 02:16:44;;;;;;;;;;;;;;;1.56;63.93;99080.97;1088058;54;1041;-78
2023/11/29 02:17:47;;;;;;;;;;;;;;;1.52;63.99;99075.09;1087980;47;908;-80
2023/11/29 02:18:50;;;;;;;;;;;;;;;1.65;63.80;99072.41;1087975;47;975;-78
2023/11/29 02:19:51;;;;;;;;;;;;;;;1.76;63.55;99068.97;1088025;54;1088;-78
2023/11/29 02:20:54;;;;;;;;;;;;;;;1.82;63.40;99067.69;1088083;54;991;-77
2023/11/29 02:21:56;;;;;;;;;;;;;;;1.84;63.22;99069.25;1088080;54;888;-79
2023/11/29 02:23:02;;;;;;;;;;;;;;;1.87;63.17;99068.19;1088125;54;1091;-78
2023/11/29 02:24:04;;;;;;;;;;;;;;;1.81;63.21;99066.00;1088110;54;1316;-79
2023/11/29 02:25:10;;;;;;;;;;;;;;;1.88;62.77;99064.59;1088133;47;1857;-78
2023/11/29 02:26:10;;;;;;;;;;;;;;;1.86;62.89;99055.97;1088358;46;1357;-79
2023/11/29 02:27:11;;;;;;;;;;;;;;;1.90;62.93;99057.41;1088075;54;1082;-79
2023/11/29 02:28:14;;;;;;;;;;;;;;;1.90;62.64;99054.78;1088152;54;1037;-78
2023/11/29 02:29:15;;;;;;;;;;;;;;;1.96;62.48;99045.56;1088527;46;949;-78
2023/11/29 02:30:15;;;;;;;;;;;;;;;1.97;62.67;99050.75;1088150;54;929;-78
2023/11/29 02:31:19;;;;;;;;;;;;;;;2.03;62.58;99049.44;1088033;54;982;-78
2023/11/29 02:32:20;;;;;;;;;;;;;;;2.00;62.55;99055.78;1087727;54;1153;-77
2023/11/29 02:33:23;;;;;;;;;;;;;;;1.89;62.85;99047.81;1087706;54;1404;-77
2023/11/29 02:34:24;;;;;;;;;;;;;;;1.80;62.83;99056.41;1087780;47;984;-78
2023/11/29 02:35:25;;;;;;;;;;;;;;;1.73;63.02;99055.19;1087787;47;1107;-77
2023/11/29 02:36:28;;;;;;;;;;;;;;;1.68;62.99;99053.75;1088070;47;940;-79
2023/11/29 02:37:29;;;;;;;;;;;;;;;1.64;63.20;99057.53;1088215;47;1138;-78
2023/11/29 02:38:32;;;;;;;;;;;;;;;1.50;63.48;99049.81;1087971;47;987;-79
2023/11/29 02:39:33;;;;;;;;;;;;;;;1.44;63.36;99055.50;1088086;47;888;-79
2023/11/29 02:40:40;;;;;;;;;;;;;;;1.46;63.56;99056.25;1088037;47;962;-79
2023/11/29 02:41:40;;;;;;;;;;;;;;;1.48;63.44;99049.91;1088264;46;1007;-79
2023/11/29 02:42:44;;;;;;;;;;;;;;;1.42;63.47;99063.53;1088426;46;921;-79
2023/11/29 02:43:45;;;;;;;;;;;;;;;1.31;63.85;99052.91;1088054;54;1441;-78
2023/11/29 02:44:48;;;;;;;;;;;;;;;1.38;63.74;99051.50;1088113;54;1856;-78
2023/11/29 02:45:49;;;;;;;;;;;;;;;1.38;64.00;99054.16;1088033;47;1526;-78
2023/11/29 02:46:52;;;;;;;;;;;;;;;1.39;64.09;99053.19;1088017;54;926;-79
2023/11/29 02:47:53;;;;;;;;;;;;;;;1.36;63.94;99053.44;1087940;47;1080;-77
2023/11/29 02:48:57;;;;;;;;;;;;;;;1.40;64.10;99055.75;1087991;54;952;-77
2023/11/29 02:49:57;;;;;;;;;;;;;;;1.42;64.07;99052.16;1087960;47;1004;-78
2023/11/29 02:51:01;;;;;;;;;;;;;;;1.37;64.16;99061.22;1088238;54;1105;-78
2023/11/29 02:52:02;;;;;;;;;;;;;;;1.35;64.03;99059.66;1088171;54;1151;-78
2023/11/29 02:53:06;;;;;;;;;;;;;;;1.37;64.21;99055.13;1088190;54;925;-79
2023/11/29 02:54:07;;;;;;;;;;;;;;;1.33;64.53;99054.47;1088287;54;899;-77
2023/11/29 02:55:08;;;;;;;;;;;;;;;1.38;64.31;99052.38;1088146;47;1053;-79
2023/11/29 02:56:14;;;;;;;;;;;;;;;1.42;64.14;99041.63;1088231;54;1041;-79
2023/11/29 02:57:14;;;;;;;;;;;;;;;1.35;64.35;99047.31;1088197;54;943;-79
2023/11/29 02:58:18;;;;;;;;;;;;;;;1.34;64.55;99052.69;1088121;54;943;-79
2023/11/29 02:59:18;;;;;;;;;;;;;;;1.33;64.59;99043.94;1088148;54;898;-78
2023/11/29 03:00:22;;;;;;;;;;;;;;;1.31;64.69;99045.88;1088347;54;1050;-80
2023/11/29 03:01:24;;;;;;;;;;;;;;;1.28;64.94;99045.22;1088671;46;868;-80
2023/11/29 03:02:29;;;;;;;;;;;;;;;1.24;65.06;99045.47;1088145;54;1002;-80
2023/11/29 03:03:30;;;;;;;;;;;;;;;1.22;64.75;99046.53;1088223;54;1426;-81
2023/11/29 03:04:34;;;;;;;;;;;;;;;1.15;64.99;99054.03;1088199;54;1856;-78
2023/11/29 03:05:35;;;;;;;;;;;;;;;1.21;65.19;99053.56;1088228;54;904;-80
2023/11/29 03:06:39;;;;;;;;;;;;;;;1.20;65.13;99051.88;1088154;47;971;-80
2023/11/29 03:07:40;;;;;;;;;;;;;;;1.24;65.31;99049.88;1088196;46;945;-81
2023/11/29 03:08:43;;;;;;;;;;;;;;;1.23;65.07;99049.03;1088155;46;1193;-80
2023/11/29 03:09:44;;;;;;;;;;;;;;;1.26;64.91;99058.50;1087940;47;953;-79
2023/11/29 03:10:47;;;;;;;;;;;;;;;1.26;65.00;99047.97;1088368;54;883;-80
2023/11/29 03:11:56;;;;;;;;;;;;;;;1.20;65.49;99048.44;1088328;47;915;-79
2023/11/29 03:13:00;;;;;;;;;;;;;;;1.32;65.14;99044.94;1088371;54;982;-79
2023/11/29 03:14:01;;;;;;;;;;;;;;;1.32;65.07;99046.69;1088002;54;1329;-81
2023/11/29 03:15:04;;;;;;;;;;;;;;;1.31;65.25;99043.25;1088399;54;1020;-81
2023/11/29 03:16:06;;;;;;;;;;;;;;;1.36;65.19;99043.72;1088399;54;1022;-80
2023/11/29 03:17:07;;;;;;;;;;;;;;;1.24;65.08;99039.34;1088418;54;963;-79
2023/11/29 03:18:10;;;;;;;;;;;;;;;1.22;65.14;99046.53;1088326;54;960;-81
2023/11/29 03:19:11;;;;;;;;;;;;;;;1.27;65.12;99049.66;1088437;54;943;-80
2023/11/29 03:20:14;;;;;;;;;;;;;;;1.27;64.95;99044.41;1088396;54;970;-81
2023/11/29 03:21:15;;;;;;;;;;;;;;;1.33;65.14;99043.94;1088276;47;953;-81
2023/11/29 03:22:18;;;;;;;;;;;;;;;1.33;65.14;99043.13;1088387;54;946;-79
2023/11/29 03:23:19;;;;;;;;;;;;;;;1.31;65.23;99034.47;1088260;54;1360;-80
2023/11/29 03:24:22;;;;;;;;;;;;;;;1.31;65.16;99043.25;1088232;47;909;-81
2023/11/29 03:25:23;;;;;;;;;;;;;;;1.39;64.76;99025.09;1088317;54;1856;-79
2023/11/29 03:26:27;;;;;;;;;;;;;;;1.35;64.85;99031.50;1088496;54;1053;-81
2023/11/29 03:27:30;;;;;;;;;;;;;;;1.40;65.05;99033.81;1088374;54;964;-80
2023/11/29 03:28:33;;;;;;;;;;;;;;;1.47;64.88;99031.59;1088402;54;1008;-82
2023/11/29 03:29:34;;;;;;;;;;;;;;;1.42;64.68;99031.09;1088493;54;996;-80
2023/11/29 03:30:38;;;;;;;;;;;;;;;1.39;64.64;99027.72;1088352;47;970;-82
2023/11/29 03:31:39;;;;;;;;;;;;;;;1.36;64.59;99029.75;1088379;54;962;-79
2023/11/29 03:32:40;;;;;;;;;;;;;;;1.41;64.83;99032.88;1088309;54;929;-80
2023/11/29 03:33:43;;;;;;;;;;;;;;;1.47;64.46;99031.59;1088091;54;1223;-80
2023/11/29 03:34:46;;;;;;;;;;;;;;;1.55;64.59;99032.72;1088108;47;1082;-79
2023/11/29 03:35:49;;;;;;;;;;;;;;;1.56;64.59;99029.09;1088201;54;1043;-79
2023/11/29 03:36:50;;;;;;;;;;;;;;;1.63;64.42;99023.41;1088096;47;963;-79
2023/11/29 03:37:53;;;;;;;;;;;;;;;1.66;64.18;99029.28;1088365;47;975;-79
2023/11/29 03:38:54;;;;;;;;;;;;;;;1.73;63.97;99024.41;1088409;47;958;-80
2023/11/29 03:39:57;;;;;;;;;;;;;;;1.76;63.94;99033.88;1088334;47;942;-81
2023/11/29 03:41:02;;;;;;;;;;;;;;;1.74;63.99;99030.50;1088449;54;1004;-80
2023/11/29 03:42:06;;;;;;;;;;;;;;;1.74;63.79;99031.38;1088143;54;960;-80
2023/11/29 03:43:09;;;;;;;;;;;;;;;1.76;63.76;99020.69;1088118;47;1390;-80
2023/11/29 03:44:12;;;;;;;;;;;;;;;1.79;63.84;99023.13;1088044;54;1145;-79
2023/11/29 03:45:13;;;;;;;;;;;;;;;1.65;64.12;99026.78;1087998;54;1852;-78
2023/11/29 03:46:16;;;;;;;;;;;;;;;1.64;63.79;99020.66;1087864;54;1064;-79
2023/11/29 03:47:17;;;;;;;;;;;;;;;1.61;63.81;99022.66;1087832;47;1057;-80
2023/11/29 03:48:20;;;;;;;;;;;;;;;1.56;64.22;99023.84;1088016;54;1058;-80
2023/11/29 03:49:21;;;;;;;;;;;;;;;1.59;64.07;99016.66;1088111;47;1006;-79
2023/11/29 03:50:24;;;;;;;;;;;;;;;1.61;64.22;99023.50;1087928;54;933;-80
2023/11/29 03:51:25;;;;;;;;;;;;;;;1.63;64.25;99013.69;1087842;54;1069;-79
2023/11/29 03:52:29;;;;;;;;;;;;;;;1.64;64.21;99015.38;1088044;47;1091;-79
2023/11/29 03:53:29;;;;;;;;;;;;;;;1.58;64.07;99010.56;1087704;54;1363;-79
2023/11/29 03:54:30;;;;;;;;;;;;;;;1.56;64.28;99010.66;1088090;54;999;-79
2023/11/29 03:55:33;;;;;;;;;;;;;;;1.60;64.05;99003.41;1088003;47;1061;-79
2023/11/29 03:56:34;;;;;;;;;;;;;;;1.59;64.29;99011.41;1087923;54;918;-79
2023/11/29 03:57:35;;;;;;;;;;;;;;;1.56;64.41;98999.31;1088042;54;997;-80
2023/11/29 03:58:40;;;;;;;;;;;;;;;1.59;64.20;99000.84;1088103;54;1006;-80
2023/11/29 03:59:41;;;;;;;;;;;;;;;1.66;63.95;98992.41;1088171;54;950;-79
2023/11/29 04:00:44;;;;;;;;;;;;;;;1.63;64.20;99002.31;1088125;54;996;-80
2023/11/29 04:01:46;;;;;;;;;;;;;;;1.62;64.03;98990.94;1088095;54;971;-79
2023/11/29 04:02:46;;;;;;;;;;;;;;;1.66;64.13;98992.41;1088162;47;1094;-79
2023/11/29 04:03:49;;;;;;;;;;;;;;;1.62;64.18;98998.84;1087997;47;1175;-80
2023/11/29 04:04:50;;;;;;;;;;;;;;;1.74;63.96;98996.25;1087920;47;1868;-79
2023/11/29 04:05:53;;;;;;;;;;;;;;;1.56;64.27;98992.22;1088022;47;1083;-79
2023/11/29 04:06:54;;;;;;;;;;;;;;;1.65;64.20;98993.34;1087912;47;964;-80
2023/11/29 04:08:01;;;;;;;;;;;;;;;1.59;64.22;98991.19;1087910;47;1014;-80
2023/11/29 04:09:03;;;;;;;;;;;;;;;1.61;64.40;98986.63;1088051;54;1095;-80
2023/11/29 04:10:06;;;;;;;;;;;;;;;1.59;64.43;98990.31;1087987;47;1011;-80
2023/11/29 04:11:10;;;;;;;;;;;;;;;1.52;64.71;98992.56;1088262;47;877;-80
2023/11/29 04:12:13;;;;;;;;;;;;;;;1.53;64.61;98983.72;1088026;54;955;-80
2023/11/29 04:13:15;;;;;;;;;;;;;;;1.55;64.41;98987.06;1088017;47;1251;-79
2023/11/29 04:14:21;;;;;;;;;;;;;;;1.48;64.49;98989.31;1087804;54;1141;-79
2023/11/29 04:15:21;;;;;;;;;;;;;;;1.55;64.41;98992.34;1088044;54;986;-80
2023/11/29 04:16:26;;;;;;;;;;;;;;;1.42;64.99;98983.69;1087893;54;904;-81
2023/11/29 04:17:27;;;;;;;;;;;;;;;1.42;65.02;98983.69;1088051;47;965;-79
2023/11/29 04:18:30;;;;;;;;;;;;;;;1.41;64.91;98988.09;1087913;47;892;-78
2023/11/29 04:19:31;;;;;;;;;;;;;;;1.46;64.83;98975.44;1088283;47;1117;-80
2023/11/29 04:20:34;;;;;;;;;;;;;;;1.46;64.92;98979.84;1088113;54;991;-79
2023/11/29 04:21:35;;;;;;;;;;;;;;;1.47;64.96;98976.25;1088396;54;1013;-79
2023/11/29 04:22:38;;;;;;;;;;;;;;;1.43;65.10;98980.06;1088444;54;964;-80
2023/11/29 04:23:41;;;;;;;;;;;;;;;1.43;65.03;98980.06;1088312;47;1295;-79
2023/11/29 04:24:42;;;;;;;;;;;;;;;1.39;65.53;98976.81;1088311;54;1037;-80
2023/11/29 04:25:45;;;;;;;;;;;;;;;1.42;65.29;98973.16;1088344;54;1849;-79
2023/11/29 04:26:47;;;;;;;;;;;;;;;1.50;65.22;98974.25;1088435;54;1031;-78
2023/11/29 04:27:50;;;;;;;;;;;;;;;1.59;64.81;98975.38;1088423;47;966;-78
2023/11/29 04:28:51;;;;;;;;;;;;;;;1.60;65.00;98977.06;1088635;46;936;-78
2023/11/29 04:29:54;;;;;;;;;;;;;;;1.58;65.04;98976.31;1088198;47;942;-77
2023/11/29 04:30:57;;;;;;;;;;;;;;;1.55;65.34;98971.28;1088210;54;968;-78
2023/11/29 04:31:58;;;;;;;;;;;;;;;1.57;65.11;98977.28;1088571;46;1035;-78
2023/11/29 04:33:02;;;;;;;;;;;;;;;1.64;65.11;98967.94;1088304;54;1035;-78
2023/11/29 04:34:03;;;;;;;;;;;;;;;1.63;64.96;98966.28;1088290;46;1254;-79
2023/11/29 04:35:07;;;;;;;;;;;;;;;1.65;65.06;98976.72;1088253;47;960;-78
2023/11/29 04:36:12;;;;;;;;;;;;;;;1.60;65.31;98976.19;1088274;54;926;-79
2023/11/29 04:37:18;;;;;;;;;;;;;;;1.63;65.32;98971.53;1088330;54;1118;-76
2023/11/29 04:38:24;;;;;;;;;;;;;;;1.66;65.18;98976.59;1088221;47;879;-79
2023/11/29 04:39:24;;;;;;;;;;;;;;;1.71;65.12;98961.25;1088289;54;992;-79
2023/11/29 04:40:28;;;;;;;;;;;;;;;1.67;65.08;98967.72;1088281;46;983;-78
2023/11/29 04:41:29;;;;;;;;;;;;;;;1.75;64.89;98959.22;1088476;47;1014;-77
2023/11/29 04:42:32;;;;;;;;;;;;;;;1.75;64.97;98953.13;1088476;47;1659;-77
2023/11/29 04:43:33;;;;;;;;;;;;;;;1.82;64.70;98959.63;1088485;54;1294;-78
2023/11/29 04:44:36;;;;;;;;;;;;;;;1.87;64.75;98958.31;1088584;46;1007;-78
2023/11/29 04:45:39;;;;;;;;;;;;;;;1.80;64.82;98961.53;1088519;54;1845;-80
2023/11/29 04:46:44;;;;;;;;;;;;;;;1.74;64.72;98964.63;1088558;47;1067;-78
2023/11/29 04:47:44;;;;;;;;;;;;;;;1.75;64.77;98963.69;1088445;47;1445;-77
2023/11/29 04:48:48;;;;;;;;;;;;;;;1.79;64.88;98968.59;1088625;47;1062;-79
2023/11/29 04:49:49;;;;;;;;;;;;;;;1.76;65.07;98970.63;1088581;54;976;-80
2023/11/29 04:50:53;;;;;;;;;;;;;;;1.76;64.87;98962.72;1088570;54;923;-79
2023/11/29 04:51:54;;;;;;;;;;;;;;;1.73;64.74;98961.16;1088220;46;1070;-79
2023/11/29 04:52:57;;;;;;;;;;;;;;;1.74;65.01;98957.59;1088183;47;943;-78
2023/11/29 04:53:58;;;;;;;;;;;;;;;1.66;64.93;98957.28;1088132;47;1304;-78
2023/11/29 04:55:02;;;;;;;;;;;;;;;1.52;65.22;98955.69;1088279;54;1135;-79
2023/11/29 04:56:02;;;;;;;;;;;;;;;1.56;65.22;98952.69;1088347;46;955;-79
2023/11/29 04:57:03;;;;;;;;;;;;;;;1.63;65.11;98961.00;1088241;47;954;-79
2023/11/29 04:58:07;;;;;;;;;;;;;;;1.60;64.95;98955.97;1088156;47;912;-79
2023/11/29 04:59:07;;;;;;;;;;;;;;;1.61;64.82;98956.81;1088197;47;995;-79
2023/11/29 05:00:12;;;;;;;;;;;;;;;1.64;64.93;98957.41;1088247;47;1042;-79
2023/11/29 05:01:16;;;;;;;;;;;;;;;1.64;65.06;98954.78;1088059;54;1074;-80
2023/11/29 05:02:20;;;;;;;;;;;;;;;1.66;64.63;98952.88;1088318;46;1566;-78
2023/11/29 05:03:20;;;;;;;;;;;;;;;1.73;64.81;98949.78;1088441;54;1329;-78
2023/11/29 05:04:24;;;;;;;;;;;;;;;1.69;64.52;98960.56;1088578;54;979;-79
2023/11/29 05:05:24;;;;;;;;;;;;;;;1.73;64.53;98949.78;1088534;46;1846;-79
2023/11/29 05:06:28;;;;;;;;;;;;;;;1.63;64.68;98966.28;1088454;54;1158;-79
2023/11/29 05:07:29;;;;;;;;;;;;;;;1.75;64.17;98958.41;1088109;54;1067;-78
2023/11/29 05:08:32;;;;;;;;;;;;;;;1.76;63.99;98954.81;1088197;54;965;-79
2023/11/29 05:09:33;;;;;;;;;;;;;;;1.74;64.17;98959.34;1088476;54;1070;-78
2023/11/29 05:10:36;;;;;;;;;;;;;;;1.69;64.16;98955.28;1088566;54;1027;-79
2023/11/29 05:11:38;;;;;;;;;;;;;;;1.64;64.12;98956.59;1088526;54;939;-78
2023/11/29 05:12:42;;;;;;;;;;;;;;;1.67;64.27;98949.28;1088692;46;1047;-78
2023/11/29 05:13:42;;;;;;;;;;;;;;;1.64;64.14;98952.13;1088239;54;1367;-78
2023/11/29 05:14:46;;;;;;;;;;;;;;;1.54;64.09;98959.03;1087799;47;1119;-78
2023/11/29 05:15:49;;;;;;;;;;;;;;;1.50;64.67;98950.53;1088433;46;1059;-81
2023/11/29 05:16:56;;;;;;;;;;;;;;;1.58;64.20;98949.13;1087929;47;911;-77
2023/11/29 05:17:57;;;;;;;;;;;;;;;1.61;64.01;98962.06;1087967;47;971;-78
2023/11/29 05:19:00;;;;;;;;;;;;;;;1.62;63.83;98958.50;1087820;47;948;-78
2023/11/29 05:20:01;;;;;;;;;;;;;;;1.64;63.98;98946.03;1088040;47;1142;-78
2023/11/29 05:21:03;;;;;;;;;;;;;;;1.65;64.03;98953.81;1088063;54;888;-78
2023/11/29 05:22:07;;;;;;;;;;;;;;;1.57;63.70;98953.56;1087853;47;1085;-78
2023/11/29 05:23:08;;;;;;;;;;;;;;;1.65;63.74;98953.81;1087782;47;1391;-78
2023/11/29 05:24:11;;;;;;;;;;;;;;;1.63;63.57;98944.38;1088019;47;941;-77
2023/11/29 05:25:13;;;;;;;;;;;;;;;1.64;63.76;98951.31;1087980;47;1083;-78
2023/11/29 05:26:17;;;;;;;;;;;;;;;1.71;63.60;98947.25;1088056;54;1850;-78
2023/11/29 05:27:17;;;;;;;;;;;;;;;1.74;63.60;98948.81;1088392;46;1072;-78
2023/11/29 05:28:24;;;;;;;;;;;;;;;1.74;63.53;98947.03;1088094;54;1136;-78
2023/11/29 05:29:25;;;;;;;;;;;;;;;1.75;63.40;98940.78;1088097;54;1097;-78
2023/11/29 05:30:29;;;;;;;;;;;;;;;1.61;63.51;98947.09;1087998;47;1191;-78
2023/11/29 05:31:30;;;;;;;;;;;;;;;1.66;63.59;98939.69;1088008;54;1040;-79
2023/11/29 05:32:36;;;;;;;;;;;;;;;1.69;63.55;98949.16;1087904;46;1129;-78
2023/11/29 05:33:36;;;;;;;;;;;;;;;1.81;63.21;98942.97;1087998;54;1346;-79
2023/11/29 05:34:40;;;;;;;;;;;;;;;1.89;62.92;98934.47;1088062;47;954;-79
2023/11/29 05:35:42;;;;;;;;;;;;;;;1.82;63.08;98943.81;1087980;47;1095;-78
2023/11/29 05:36:46;;;;;;;;;;;;;;;1.86;62.89;98945.28;1088038;54;1080;-78
2023/11/29 05:37:47;;;;;;;;;;;;;;;1.82;63.03;98946.44;1088038;47;1514;-78
2023/11/29 05:38:51;;;;;;;;;;;;;;;1.61;63.34;98941.81;1088190;54;1219;-77